Time;durP1;ratioP1;P1;durP2;ratioP2;P2;SDS_P1;SDS_P2;PMS_P1;PMS_P2;Temp;Humidity;BMP_temperature;BMP_pressure;BME280_temperature;BME280_humidity;BME280_pressure;Samples;Min_cycle;Max_cycle;Signal;HPM_P1;HPM_P2
2022/04/18 00:19:09;;;;;;;15.57;10.38;;;6.60;86.60;;;;;;6222414;23;20046;-94
2022/04/18 00:21:37;;;;;;;14.23;10.13;;;6.60;86.70;;;;;;6215650;23;20461;-93
2022/04/18 00:26:39;;;;;;;15.90;10.88;;;6.60;86.90;;;;;;6217384;22;20028;-90
2022/04/18 00:29:08;;;;;;;17.23;11.45;;;6.60;87.00;;;;;;6191472;23;20023;-90
2022/04/18 00:31:36;;;;;;;15.02;10.43;;;6.60;87.00;;;;;;6191146;23;20016;-90
2022/04/18 00:34:05;;;;;;;16.55;11.02;;;6.60;86.90;;;;;;6191120;23;20020;-92
2022/04/18 00:36:31;;;;;;;15.52;10.98;;;6.60;87.20;;;;;;6191129;23;20071;-92
2022/04/18 00:38:57;;;;;;;16.27;10.75;;;6.50;87.80;;;;;;6191660;23;20024;-93
2022/04/18 00:41:23;;;;;;;18.37;11.63;;;6.50;88.10;;;;;;6191454;23;20016;-95
2022/04/18 00:46:34;;;;;;;14.40;10.93;;;6.50;90.00;;;;;;6240103;22;20020;-94
2022/04/18 00:57:28;;;;;;;19.05;11.45;;;6.20;91.00;;;;;;6246099;22;20024;-92
2022/04/18 00:59:54;;;;;;;16.42;11.50;;;6.10;91.50;;;;;;6221143;23;20106;-94
2022/04/18 01:29:50;;;;;;;20.05;12.40;;;6.00;93.70;;;;;;6251495;22;20019;-92
2022/04/18 01:32:18;;;;;;;19.00;12.50;;;5.90;93.90;;;;;;6226100;22;20441;-91
2022/04/18 01:35:00;;;;;;;19.60;11.82;;;5.80;94.20;;;;;;6225919;22;20023;-92
2022/04/18 01:37:41;;;;;;;19.85;12.95;;;5.70;94.80;;;;;;6227574;22;20023;-92
2022/04/18 01:40:19;;;;;;;17.67;12.32;;;5.60;95.40;;;;;;6225796;22;20015;-90
2022/04/18 01:42:45;;;;;;;16.70;12.23;;;5.50;96.40;;;;;;6225629;22;20125;-91
2022/04/18 01:45:11;;;;;;;19.00;13.07;;;5.50;97.20;;;;;;6226197;22;20015;-92
2022/04/18 01:47:37;;;;;;;18.90;12.57;;;5.40;97.60;;;;;;6226352;22;20068;-92
2022/04/18 01:50:05;;;;;;;19.63;12.67;;;5.40;97.70;;;;;;6225834;22;20018;-92
2022/04/18 01:52:34;;;;;;;20.10;13.05;;;5.40;98.00;;;;;;6225766;22;20022;-93
2022/04/18 01:55:44;;;;;;;21.65;13.18;;;5.20;98.30;;;;;;6225859;22;20023;-93
2022/04/18 01:58:18;;;;;;;18.10;12.88;;;5.10;98.80;;;;;;6227587;22;20061;-94
2022/04/18 02:00:44;;;;;;;19.23;12.35;;;5.00;99.40;;;;;;6226006;22;20016;-93
2022/04/18 02:03:10;;;;;;;20.03;13.83;;;5.00;99.70;;;;;;6225767;22;20008;-93
2022/04/18 02:05:36;;;;;;;19.37;13.37;;;5.00;99.90;;;;;;6225856;22;20016;-94
2022/04/18 02:08:23;;;;;;;19.50;13.00;;;5.00;99.90;;;;;;6225985;22;20062;-95
2022/04/18 02:11:09;;;;;;;18.77;12.97;;;5.00;99.90;;;;;;6226450;22;20016;-96
2022/04/18 02:13:39;;;;;;;20.70;13.05;;;5.00;99.90;;;;;;6224836;22;20694;-95
2022/04/18 02:16:05;;;;;;;19.27;13.02;;;5.00;99.90;;;;;;6225598;22;20101;-94
2022/04/18 02:18:58;;;;;;;19.50;12.85;;;5.00;99.90;;;;;;6225834;22;20012;-94
2022/04/18 02:22:01;;;;;;;20.98;12.68;;;5.00;99.90;;;;;;6249940;22;20106;-94
2022/04/18 02:24:30;;;;;;;19.88;13.27;;;5.00;99.90;;;;;;6226291;22;20041;-94
2022/04/18 02:26:56;;;;;;;19.45;11.93;;;5.00;99.90;;;;;;6224480;22;20448;-92
2022/04/18 02:29:21;;;;;;;19.48;12.98;;;5.00;99.90;;;;;;6220807;23;20024;-95
2022/04/18 02:34:40;;;;;;;19.45;13.02;;;5.00;99.90;;;;;;6245736;23;20073;-94
2022/04/18 02:37:36;;;;;;;18.58;12.95;;;5.00;99.90;;;;;;6220577;23;20016;-94
2022/04/18 02:40:02;;;;;;;21.52;13.60;;;4.90;99.90;;;;;;6220145;23;20012;-94
2022/04/18 02:42:28;;;;;;;18.10;12.67;;;4.90;99.90;;;;;;6220432;23;20057;-95
2022/04/18 02:44:53;;;;;;;18.27;12.93;;;4.90;99.90;;;;;;6219911;23;20025;-91
2022/04/18 02:47:24;;;;;;;19.25;12.60;;;4.90;99.90;;;;;;6220533;23;20018;-93
2022/04/18 02:49:50;;;;;;;18.50;12.80;;;5.00;99.90;;;;;;6220170;23;20383;-94
2022/04/18 02:52:17;;;;;;;20.75;13.13;;;5.00;99.90;;;;;;6220415;23;20081;-93
2022/04/18 02:54:44;;;;;;;19.17;13.13;;;4.90;99.90;;;;;;6220499;23;20019;-94
2022/04/18 02:57:12;;;;;;;18.98;13.05;;;4.90;99.90;;;;;;6220455;23;20016;-94
2022/04/18 02:59:41;;;;;;;20.92;13.82;;;5.00;99.90;;;;;;6220721;23;20487;-94
2022/04/18 03:02:07;;;;;;;20.40;13.23;;;5.00;99.90;;;;;;6221018;23;20012;-95
2022/04/18 03:04:35;;;;;;;22.45;13.93;;;5.00;99.90;;;;;;6220461;23;20019;-92
2022/04/18 03:07:01;;;;;;;20.85;13.57;;;5.00;99.90;;;;;;6220294;23;20023;-93
2022/04/18 03:09:27;;;;;;;19.98;12.80;;;5.00;99.90;;;;;;6220519;23;20016;-93
2022/04/18 03:11:53;;;;;;;20.60;13.52;;;5.00;99.90;;;;;;6220064;23;20036;-92
2022/04/18 03:14:19;;;;;;;22.90;13.23;;;4.90;99.90;;;;;;6220119;23;20016;-93
2022/04/18 03:16:45;;;;;;;21.75;13.43;;;4.90;99.90;;;;;;6220153;23;20445;-94
2022/04/18 03:19:10;;;;;;;18.73;13.73;;;5.00;99.90;;;;;;6219919;23;20012;-93
2022/04/18 03:21:36;;;;;;;20.30;13.48;;;5.00;99.90;;;;;;6219921;23;20091;-92
2022/04/18 03:24:02;;;;;;;20.17;13.27;;;5.00;99.90;;;;;;6220213;23;20020;-93
2022/04/18 03:26:27;;;;;;;19.65;13.52;;;5.00;99.90;;;;;;6219913;23;20020;-92
2022/04/18 03:28:53;;;;;;;21.07;13.17;;;4.90;99.90;;;;;;6220166;23;20026;-92
2022/04/18 03:31:19;;;;;;;16.70;12.13;;;4.90;99.90;;;;;;6219983;23;20024;-93
2022/04/18 03:33:44;;;;;;;19.37;12.67;;;4.80;99.90;;;;;;6220095;23;20027;-96
2022/04/18 03:41:38;;;;;;;19.70;13.32;;;4.60;99.90;;;;;;6244965;23;20526;-95
2022/04/18 03:44:04;;;;;;;20.55;14.13;;;4.60;99.90;;;;;;6220003;23;20043;-93
2022/04/18 03:46:30;;;;;;;21.77;12.97;;;4.50;99.90;;;;;;6220279;23;20071;-94
2022/04/18 03:48:55;;;;;;;18.83;12.67;;;4.50;99.90;;;;;;6219842;23;20374;-95
2022/04/18 03:51:39;;;;;;;18.52;12.82;;;4.50;99.90;;;;;;6219662;23;20012;-94
2022/04/18 03:54:05;;;;;;;19.95;12.55;;;4.50;99.90;;;;;;6220219;23;20058;-94
2022/04/18 03:56:34;;;;;;;20.13;13.18;;;4.50;99.90;;;;;;6220489;23;20027;-94
2022/04/18 03:59:05;;;;;;;20.42;12.35;;;4.50;99.90;;;;;;6221683;23;20024;-95
2022/04/18 04:01:43;;;;;;;19.10;12.18;;;4.50;99.90;;;;;;6224310;23;20016;-95
2022/04/18 04:04:12;;;;;;;18.85;12.43;;;4.50;99.90;;;;;;6221826;23;20113;-94
2022/04/18 04:07:16;;;;;;;19.20;13.18;;;4.50;99.90;;;;;;6222210;23;20074;-90
2022/04/18 04:10:01;;;;;;;18.95;12.43;;;4.50;99.90;;;;;;6222286;23;20016;-93
2022/04/18 04:12:37;;;;;;;19.05;12.63;;;4.50;99.90;;;;;;6218602;23;20047;-94
2022/04/18 04:15:03;;;;;;;20.83;12.55;;;4.50;99.90;;;;;;6218355;23;20318;-94
2022/04/18 04:21:24;;;;;;;18.63;12.07;;;4.50;99.90;;;;;;6228913;22;20028;-91
2022/04/18 04:23:50;;;;;;;18.55;12.55;;;4.50;99.90;;;;;;6221888;23;20022;-91
2022/04/18 04:26:15;;;;;;;19.63;12.02;;;4.50;99.90;;;;;;6221751;23;20015;-93
2022/04/18 04:28:41;;;;;;;20.37;12.80;;;4.50;99.90;;;;;;6221377;23;20047;-93
2022/04/18 04:31:07;;;;;;;17.00;11.63;;;4.50;99.90;;;;;;6221757;23;20322;-92
2022/04/18 04:33:33;;;;;;;17.87;12.17;;;4.50;99.90;;;;;;6221537;23;20027;-93
2022/04/18 04:35:59;;;;;;;19.87;13.10;;;4.50;99.90;;;;;;6221268;23;20024;-91
2022/04/18 04:38:25;;;;;;;19.52;12.20;;;4.60;99.90;;;;;;6221670;23;20081;-94
2022/04/18 04:42:14;;;;;;;18.08;11.68;;;4.60;99.90;;;;;;6221523;23;20020;-91
2022/04/18 04:44:20;;;;;;;17.58;10.73;;;4.70;99.90;;;;;;6229798;23;20455;-93
2022/04/18 04:47:16;;;;;;;20.30;11.98;;;4.80;99.90;;;;;;6221130;23;20107;-92
2022/04/18 04:49:42;;;;;;;17.92;11.73;;;5.00;99.90;;;;;;6221455;23;20017;-92
2022/04/18 04:52:15;;;;;;;16.73;11.98;;;5.00;99.90;;;;;;6221239;23;20104;-92
2022/04/18 04:54:41;;;;;;;17.77;11.35;;;5.00;99.90;;;;;;6221016;23;20024;-92
2022/04/18 04:57:08;;;;;;;16.60;11.52;;;5.10;99.90;;;;;;6221103;23;20420;-93
2022/04/18 04:59:34;;;;;;;18.52;12.10;;;5.20;99.90;;;;;;6221121;23;20078;-93
2022/04/18 05:02:00;;;;;;;19.83;12.18;;;5.30;99.90;;;;;;6221175;23;20047;-90
2022/04/18 05:04:27;;;;;;;20.37;12.73;;;5.30;99.90;;;;;;6221361;23;20364;-93
2022/04/18 05:07:13;;;;;;;16.50;11.43;;;5.40;99.90;;;;;;6221743;23;20043;-93
2022/04/18 05:09:46;;;;;;;17.52;11.65;;;5.40;99.90;;;;;;6220752;23;20016;-92
2022/04/18 05:12:12;;;;;;;16.75;11.55;;;5.60;99.90;;;;;;6220653;23;20027;-88
2022/04/18 05:15:15;;;;;;;18.02;11.40;;;5.60;99.90;;;;;;6220630;23;20342;-92
2022/04/18 05:41:33;;;;;;;;;;;;;;;;;;;;;
2022/04/18 05:43:59;;;;;;;18.90;11.88;;;6.20;99.90;;;;;;6246051;23;20031;-91
2022/04/18 05:46:26;;;;;;;16.50;11.73;;;6.10;99.90;;;;;;6220997;23;20055;-93
2022/04/18 05:48:52;;;;;;;;;;;6.10;99.90;;;;;;6221353;23;20020;-91
2022/04/18 05:51:19;;;;;;;17.05;12.13;;;6.10;99.90;;;;;;6220686;23;19922;-91
2022/04/18 05:54:33;;;;;;;17.60;11.82;;;6.10;99.90;;;;;;6221003;23;20099;-91
2022/04/18 05:57:37;;;;;;;21.15;11.13;;;6.20;99.90;;;;;;6224847;23;20027;-91
2022/04/18 06:00:26;;;;;;;20.05;11.55;;;6.30;99.90;;;;;;6220504;23;20450;-92
2022/04/18 06:02:53;;;;;;;14.15;10.23;;;6.50;99.90;;;;;;6220170;23;20023;-89
2022/04/18 06:05:19;;;;;;;17.08;10.93;;;6.70;99.90;;;;;;6243231;23;20441;-94
2022/04/18 06:08:01;;;;;;;17.40;11.80;;;6.80;99.90;;;;;;6220221;23;20026;-91
2022/04/18 06:10:41;;;;;;;15.95;10.20;;;7.10;99.90;;;;;;6220073;23;20018;-89
2022/04/18 06:13:39;;;;;;;20.58;12.25;;;7.30;99.90;;;;;;6219840;23;20043;-90
2022/04/18 06:16:08;;;;;;;18.58;11.45;;;7.60;99.90;;;;;;6200164;23;20396;-92
2022/04/18 06:18:34;;;;;;;17.77;11.38;;;7.80;99.90;;;;;;6220494;23;20012;-92
2022/04/18 06:21:11;;;;;;;15.97;10.07;;;8.00;99.90;;;;;;6219862;23;20119;-92
2022/04/18 06:23:55;;;;;;;17.90;10.50;;;8.20;99.90;;;;;;6220640;23;20012;-95
2022/04/18 06:26:39;;;;;;;21.58;10.80;;;8.40;99.90;;;;;;6245750;23;20035;-93
2022/04/18 06:29:49;;;;;;;14.15;10.05;;;8.60;99.90;;;;;;6220409;23;20019;-94
2022/04/18 06:32:25;;;;;;;15.43;10.32;;;9.00;99.90;;;;;;6151572;23;20050;-92
2022/04/18 06:34:55;;;;;;;15.98;10.48;;;9.60;99.90;;;;;;6220966;23;20476;-96
2022/04/18 06:37:21;;;;;;;16.23;10.77;;;10.40;99.90;;;;;;6229502;23;20016;-93
2022/04/18 06:39:47;;;;;;;13.77;9.77;;;11.20;99.40;;;;;;6249957;23;20024;-95
2022/04/18 06:42:51;;;;;;;16.13;9.93;;;11.90;97.40;;;;;;6219617;23;20012;-92
2022/04/18 06:45:17;;;;;;;15.52;9.80;;;12.80;94.70;;;;;;6219968;23;20016;-94
2022/04/18 06:48:01;;;;;;;16.33;10.07;;;13.60;90.40;;;;;;6245650;23;20023;-96
2022/04/18 06:50:27;;;;;;;14.65;9.95;;;14.00;86.70;;;;;;6220331;23;20020;-93
2022/04/18 06:53:00;;;;;;;14.30;10.13;;;14.30;81.80;;;;;;6220002;23;20026;-92
2022/04/18 06:58:55;;;;;;;14.18;10.48;;;14.70;77.70;;;;;;6245175;23;20020;-94
2022/04/18 07:01:21;;;;;;;13.77;10.10;;;14.50;77.00;;;;;;6220218;23;20095;-86
2022/04/18 07:03:50;;;;;;;16.93;10.47;;;14.50;75.40;;;;;;6245483;23;20059;-88
2022/04/18 07:06:16;;;;;;;16.50;10.35;;;14.30;75.10;;;;;;6245892;23;20095;-91
2022/04/18 07:08:41;;;;;;;13.50;9.93;;;14.20;75.30;;;;;;6244107;23;20055;-92
2022/04/18 07:11:07;;;;;;;13.50;9.17;;;14.20;75.20;;;;;;6220111;23;20012;-88
2022/04/18 07:13:33;;;;;;;11.80;8.37;;;14.30;74.40;;;;;;6219903;23;20457;-91
2022/04/18 07:16:00;;;;;;;12.02;8.73;;;14.30;73.50;;;;;;6220155;23;20345;-91
2022/04/18 07:18:26;;;;;;;12.38;8.80;;;14.30;72.00;;;;;;6245642;23;20020;-91
2022/04/18 07:20:52;;;;;;;11.85;8.52;;;14.20;71.40;;;;;;6246267;23;20516;-96
2022/04/18 07:23:17;;;;;;;12.13;7.70;;;14.20;71.40;;;;;;6220288;23;20311;-93
2022/04/18 07:25:43;;;;;;;13.27;9.23;;;14.30;70.70;;;;;;6219962;23;20099;-91
2022/04/18 07:28:11;;;;;;;13.30;8.67;;;14.50;69.80;;;;;;6245161;23;20016;-91
2022/04/18 07:30:37;;;;;;;14.80;8.68;;;14.80;68.80;;;;;;6219673;23;20453;-89
2022/04/18 07:33:21;;;;;;;12.07;8.17;;;14.90;68.20;;;;;;6219865;23;20078;-91
2022/04/18 07:36:03;;;;;;;12.38;8.60;;;14.90;68.30;;;;;;6218009;23;20015;-91
2022/04/18 07:41:37;;;;;;;12.30;8.70;;;14.60;68.80;;;;;;6206133;23;20028;-92
2022/04/18 07:44:03;;;;;;;12.07;8.10;;;14.20;70.10;;;;;;6190250;23;20017;-93
2022/04/18 07:46:29;;;;;;;13.57;8.18;;;14.00;71.10;;;;;;6165091;23;20107;-96
2022/04/18 07:48:56;;;;;;;13.88;8.20;;;13.80;72.00;;;;;;6165268;23;20017;-93
2022/04/18 07:51:41;;;;;;;12.80;8.30;;;13.60;73.00;;;;;;6164836;23;20028;-90
2022/04/18 07:54:08;;;;;;;11.68;7.65;;;13.40;73.30;;;;;;6164784;23;20066;-91
2022/04/18 07:57:08;;;;;;;11.77;7.93;;;13.20;73.30;;;;;;6165006;23;20024;-90
2022/04/18 07:59:58;;;;;;;14.20;9.02;;;13.10;73.30;;;;;;6165172;23;20051;-94
2022/04/18 08:02:24;;;;;;;13.50;8.57;;;13.00;73.60;;;;;;6164136;23;20020;-92
2022/04/18 08:04:50;;;;;;;12.38;7.93;;;13.00;73.60;;;;;;6164963;23;20021;-90
2022/04/18 08:07:16;;;;;;;11.53;7.87;;;13.00;73.90;;;;;;6189600;23;20120;-90
2022/04/18 08:09:42;;;;;;;13.05;8.48;;;12.90;73.60;;;;;;6165253;23;20017;-92
2022/04/18 08:12:11;;;;;;;12.23;7.97;;;12.90;73.50;;;;;;6165298;23;20508;-89
2022/04/18 08:14:38;;;;;;;13.93;8.18;;;12.90;74.20;;;;;;6164904;23;20016;-92
2022/04/18 08:17:04;;;;;;;13.77;8.18;;;13.00;75.10;;;;;;6164685;23;20086;-89
2022/04/18 08:19:30;;;;;;;13.73;8.07;;;13.00;75.00;;;;;;6189463;23;20087;-90
2022/04/18 08:22:30;;;;;;;9.75;7.38;;;13.10;75.00;;;;;;6165145;23;20048;-90
2022/04/18 08:24:56;;;;;;;11.77;7.90;;;13.20;75.10;;;;;;6160625;23;20028;-91
2022/04/18 08:35:26;;;;;;;11.13;7.20;;;13.40;74.30;;;;;;6276430;22;20024;-93
2022/04/18 08:37:52;;;;;;;10.40;6.43;;;13.40;73.70;;;;;;6250722;22;20431;-92
2022/04/18 08:40:18;;;;;;;10.97;7.10;;;13.50;73.50;;;;;;6248580;22;20051;-88
2022/04/18 08:43:06;;;;;;;;;;;;;;;;;;;;;
2022/04/18 08:45:37;;;;;;;8.40;6.07;;;13.60;73.40;;;;;;6276559;22;20247;-89
2022/04/18 08:55:17;;;;;;;11.73;6.90;;;13.70;73.00;;;;;;6277416;22;20089;-89
2022/04/18 08:57:43;;;;;;;13.57;7.13;;;13.80;73.00;;;;;;6267241;22;20038;-90
2022/04/18 09:00:45;;;;;;;11.05;6.95;;;13.90;71.80;;;;;;6248460;22;20105;-91
2022/04/18 09:21:19;;;;;;;11.10;6.85;;;14.50;70.70;;;;;;6260705;22;20020;-89
2022/04/18 09:24:34;;;;;;;;;;;;;;;;;;;;;
2022/04/18 09:27:34;;;;;;;10.63;6.72;;;14.70;70.80;;;;;;6275637;22;20016;-90
2022/04/18 09:30:17;;;;;;;10.70;6.97;;;14.90;69.80;;;;;;6252542;22;20023;-90
2022/04/18 09:33:03;;;;;;;9.13;6.32;;;15.00;69.60;;;;;;6251173;22;20020;-90
2022/04/18 09:35:31;;;;;;;10.95;6.53;;;15.10;70.60;;;;;;6251356;22;20047;-89
2022/04/18 09:38:05;;;;;;;10.00;6.45;;;15.10;69.70;;;;;;6252190;22;20438;-93
2022/04/18 09:46:01;;;;;;;8.82;6.18;;;15.50;69.20;;;;;;6273948;22;20073;-87
2022/04/18 10:05:04;;;;;;;8.52;5.43;;;16.20;68.20;;;;;;6217367;22;20027;-89
2022/04/18 10:16:52;;;;;;;9.10;5.43;;;16.70;65.90;;;;;;6196731;23;20020;-89
2022/04/18 10:19:55;;;;;;;9.02;5.40;;;16.80;65.60;;;;;;6223558;22;20024;-91
2022/04/18 10:28:10;;;;;;;8.90;5.70;;;17.10;63.90;;;;;;6247848;22;20047;-87
2022/04/18 10:30:43;;;;;;;10.68;6.15;;;17.20;62.40;;;;;;6219900;23;20047;-87
2022/04/18 10:33:12;;;;;;;7.88;4.82;;;17.30;63.90;;;;;;6195767;23;20023;-94
2022/04/18 10:38:13;;;;;;;9.18;5.47;;;17.50;62.30;;;;;;6188653;23;20020;-88
2022/04/18 10:40:40;;;;;;;7.45;4.60;;;17.60;61.50;;;;;;6189462;23;20025;-86
2022/04/18 10:43:12;;;;;;;7.82;5.13;;;17.70;61.00;;;;;;6189623;23;20012;-88
2022/04/18 10:46:22;;;;;;;8.32;4.95;;;17.80;61.40;;;;;;6189870;23;20027;-87
2022/04/18 10:49:18;;;;;;;7.85;5.30;;;17.90;61.00;;;;;;6189593;23;20347;-88
2022/04/18 10:52:51;;;;;;;7.85;5.03;;;18.00;60.80;;;;;;6189439;23;20031;-88
2022/04/18 10:55:12;;;;;;;;;;;18.10;60.30;;;;;;6182409;23;20222;-88
2022/04/18 10:57:41;;;;;;;8.73;4.75;;;18.30;60.50;;;;;;6185500;23;19916;-86
2022/04/18 11:00:07;;;;;;;7.18;5.10;;;18.30;60.00;;;;;;6189408;23;20017;-87
2022/04/18 11:02:38;;;;;;;7.95;5.28;;;18.40;57.90;;;;;;6189409;23;20462;-86
2022/04/18 11:05:05;;;;;;;9.25;5.55;;;18.40;56.70;;;;;;6213757;23;20025;-87
2022/04/18 11:07:41;;;;;;;9.50;5.30;;;18.50;56.60;;;;;;6214364;23;20052;-87
2022/04/18 11:10:28;;;;;;;8.68;5.13;;;18.60;56.80;;;;;;6189874;23;20024;-87
2022/04/18 11:12:59;;;;;;;6.55;3.80;;;18.60;56.00;;;;;;6216282;23;20462;-92
2022/04/18 11:15:25;;;;;;;8.18;4.40;;;18.70;54.80;;;;;;6216187;23;20048;-89
2022/04/18 11:17:51;;;;;;;6.60;3.75;;;18.70;55.30;;;;;;6189697;23;20020;-84
2022/04/18 11:20:32;;;;;;;8.38;4.28;;;18.90;55.70;;;;;;6189299;23;20473;-89
2022/04/18 11:23:22;;;;;;;7.38;4.07;;;19.00;55.30;;;;;;6212873;23;20048;-83
2022/04/18 11:25:53;;;;;;;6.60;4.35;;;19.10;51.50;;;;;;6187693;23;20021;-85
2022/04/18 11:28:19;;;;;;;7.90;5.05;;;19.10;54.30;;;;;;6215104;23;20012;-87
2022/04/18 11:30:45;;;;;;;7.65;5.00;;;19.20;54.30;;;;;;6189462;23;20341;-85
2022/04/18 11:33:12;;;;;;;8.00;5.22;;;19.30;53.90;;;;;;6214258;23;20012;-84
2022/04/18 11:35:38;;;;;;;6.47;4.40;;;19.40;53.50;;;;;;6189592;23;20024;-85
2022/04/18 11:38:10;;;;;;;7.50;4.80;;;19.40;52.40;;;;;;6214475;23;20052;-87
2022/04/18 11:40:44;;;;;;;8.65;4.53;;;19.50;51.10;;;;;;6214944;23;20056;-93
2022/04/18 11:43:15;;;;;;;7.28;4.65;;;19.50;51.10;;;;;;6191469;23;20028;-86
2022/04/18 11:45:42;;;;;;;7.13;4.50;;;19.50;51.50;;;;;;6189115;23;20056;-92
2022/04/18 11:48:11;;;;;;;6.43;4.25;;;19.50;51.90;;;;;;6189238;23;20565;-93
2022/04/18 11:50:41;;;;;;;7.07;4.50;;;19.60;52.00;;;;;;6215881;23;20013;-88
2022/04/18 11:53:09;;;;;;;7.18;4.38;;;19.70;51.60;;;;;;6215981;23;20052;-93
2022/04/18 11:55:46;;;;;;;7.10;4.50;;;19.80;51.00;;;;;;6189295;23;20017;-92
2022/04/18 11:58:19;;;;;;;7.20;3.90;;;19.90;51.10;;;;;;6214628;23;20072;-92
2022/04/18 12:09:01;;;;;;;6.55;3.70;;;20.10;49.30;;;;;;6212568;23;20024;-85
2022/04/18 12:11:33;;;;;;;6.75;4.13;;;20.20;49.00;;;;;;6212381;23;20023;-85
2022/04/18 12:13:59;;;;;;;8.73;4.38;;;20.20;48.90;;;;;;6186473;23;20013;-85
2022/04/18 12:16:25;;;;;;;6.97;4.30;;;20.30;49.60;;;;;;6213235;23;20055;-85
2022/04/18 12:18:55;;;;;;;8.75;4.38;;;20.30;49.50;;;;;;6215401;23;20394;-83
2022/04/18 12:21:23;;;;;;;8.15;4.10;;;20.30;49.00;;;;;;6215523;23;20020;-85
2022/04/18 12:23:57;;;;;;;6.60;3.17;;;20.20;48.70;;;;;;6215488;23;20017;-86
2022/04/18 12:26:33;;;;;;;6.03;3.92;;;20.20;48.70;;;;;;6190450;23;20016;-87
2022/04/18 12:29:10;;;;;;;6.20;3.92;;;20.30;48.80;;;;;;6190566;23;20103;-83
2022/04/18 12:31:43;;;;;;;6.80;3.83;;;20.30;48.30;;;;;;6215752;23;20472;-84
2022/04/18 12:34:19;;;;;;;7.57;3.67;;;20.40;47.80;;;;;;6215493;23;20017;-83
2022/04/18 12:36:45;;;;;;;7.35;3.70;;;20.50;48.60;;;;;;6215218;23;20017;-84
2022/04/18 12:39:25;;;;;;;6.45;4.00;;;20.50;48.80;;;;;;6216633;23;20024;-85
2022/04/18 12:42:00;;;;;;;5.90;4.10;;;20.60;48.60;;;;;;6215531;23;20066;-83
2022/04/18 12:44:27;;;;;;;6.00;3.70;;;20.60;47.40;;;;;;6217059;23;20025;-84
2022/04/18 12:46:54;;;;;;;8.43;3.60;;;20.60;47.30;;;;;;6214762;23;20760;-83
2022/04/18 12:49:19;;;;;;;5.63;3.25;;;20.60;47.70;;;;;;6215447;23;20400;-85
2022/04/18 12:51:50;;;;;;;7.35;3.20;;;20.70;47.60;;;;;;6215461;23;20056;-85
2022/04/18 12:54:24;;;;;;;7.07;3.30;;;20.70;47.20;;;;;;6215437;23;20012;-87
2022/04/18 12:56:51;;;;;;;5.85;3.42;;;20.80;47.60;;;;;;6217099;23;20074;-87
2022/04/18 12:59:25;;;;;;;5.13;3.38;;;20.80;47.50;;;;;;6215450;23;20025;-87
2022/04/18 13:01:51;;;;;;;6.28;3.65;;;20.70;47.60;;;;;;6215485;23;20399;-86
2022/04/18 13:04:27;;;;;;;6.15;3.72;;;20.80;46.50;;;;;;6215225;23;20066;-85
2022/04/18 13:07:06;;;;;;;6.97;3.67;;;20.80;45.90;;;;;;6190442;23;20025;-87
2022/04/18 13:09:32;;;;;;;5.53;3.60;;;20.80;45.60;;;;;;6190149;23;20401;-85
2022/04/18 13:12:02;;;;;;;6.43;3.60;;;20.80;45.40;;;;;;6215311;23;20103;-88
2022/04/18 13:14:28;;;;;;;5.70;3.40;;;20.80;46.30;;;;;;6214729;23;20020;-89
2022/04/18 13:17:10;;;;;;;5.63;3.97;;;20.80;46.80;;;;;;6213023;23;20505;-85
2022/04/18 13:19:37;;;;;;;5.78;3.28;;;20.90;46.50;;;;;;6215326;23;20135;-84
2022/04/18 13:22:04;;;;;;;6.70;3.40;;;20.90;46.60;;;;;;6213745;23;20019;-88
2022/04/18 13:24:30;;;;;;;7.32;4.18;;;20.90;47.10;;;;;;6189907;23;20016;-84
2022/04/18 13:26:56;;;;;;;6.22;3.78;;;20.90;47.00;;;;;;6190731;23;20013;-84
2022/04/18 13:29:21;;;;;;;6.28;4.25;;;20.90;47.30;;;;;;6213801;23;20020;-87
2022/04/18 13:31:47;;;;;;;6.38;3.80;;;20.90;45.60;;;;;;6213318;23;20023;-86
2022/04/18 13:34:13;;;;;;;6.32;3.72;;;20.90;44.90;;;;;;6214246;23;20028;-86
2022/04/18 13:36:40;;;;;;;7.20;4.00;;;20.90;44.30;;;;;;6214161;23;20110;-85
2022/04/18 13:39:06;;;;;;;10.15;3.85;;;20.80;44.40;;;;;;6213427;23;20012;-86
2022/04/18 13:41:33;;;;;;;6.90;4.28;;;20.70;43.90;;;;;;6214953;23;20196;-85
2022/04/18 13:43:59;;;;;;;8.60;4.38;;;20.60;43.50;;;;;;6214299;23;20012;-89
2022/04/18 13:46:26;;;;;;;5.22;3.58;;;20.50;43.10;;;;;;6214858;23;20025;-85
2022/04/18 13:48:52;;;;;;;6.43;3.05;;;20.50;44.30;;;;;;6215137;23;20028;-87
2022/04/18 13:51:20;;;;;;;6.32;3.30;;;20.50;45.40;;;;;;6213957;23;20071;-88
2022/04/18 13:53:46;;;;;;;6.47;3.40;;;20.50;45.60;;;;;;6214968;23;20020;-85
2022/04/18 13:56:12;;;;;;;5.05;3.35;;;20.50;45.10;;;;;;6214659;23;20071;-84
2022/04/18 13:58:38;;;;;;;7.45;3.67;;;20.60;44.50;;;;;;6189553;23;20023;-86
2022/04/18 14:01:05;;;;;;;5.95;3.33;;;20.50;43.50;;;;;;6189308;23;20059;-86
2022/04/18 14:03:31;;;;;;;5.70;3.75;;;20.50;44.00;;;;;;6216056;23;20028;-84
2022/04/18 14:05:58;;;;;;;6.43;3.70;;;20.50;43.60;;;;;;6214801;23;20070;-84
2022/04/18 14:08:25;;;;;;;7.70;3.55;;;20.50;43.50;;;;;;6214546;23;20056;-90
2022/04/18 14:10:51;;;;;;;5.25;3.65;;;20.40;44.20;;;;;;6213846;23;20035;-86
2022/04/18 14:13:18;;;;;;;6.22;3.53;;;20.40;43.80;;;;;;6189195;23;20021;-87
2022/04/18 14:21:13;;;;;;;7.80;3.50;;;20.30;42.80;;;;;;6215020;23;20031;-86
2022/04/18 14:23:41;;;;;;;5.88;3.40;;;20.20;43.50;;;;;;6189535;23;20027;-84
2022/04/18 14:26:07;;;;;;;5.22;3.42;;;20.20;44.20;;;;;;6214648;23;20017;-86
2022/04/18 14:28:33;;;;;;;5.63;3.30;;;20.20;44.80;;;;;;6191418;23;20021;-86
2022/04/18 14:30:58;;;;;;;7.03;3.35;;;20.20;44.90;;;;;;6189927;23;20013;-89
2022/04/18 14:33:24;;;;;;;5.35;3.22;;;20.20;45.50;;;;;;6214467;23;20069;-87
2022/04/18 14:35:50;;;;;;;5.63;3.60;;;20.10;44.10;;;;;;6213976;23;20027;-88
2022/04/18 14:38:15;;;;;;;6.05;3.60;;;20.00;43.80;;;;;;6213814;23;20016;-87
2022/04/18 14:40:43;;;;;;;5.28;3.17;;;19.90;44.20;;;;;;6187688;23;20442;-86
2022/04/18 14:43:14;;;;;;;6.43;3.15;;;19.90;44.00;;;;;;6214495;23;20070;-86
2022/04/18 14:45:40;;;;;;;5.57;3.55;;;19.80;44.20;;;;;;6215503;23;20036;-86
2022/04/18 14:48:06;;;;;;;;;;;19.80;44.30;;;;;;6214334;23;20096;-85
2022/04/18 14:50:33;;;;;;;5.93;3.20;;;19.80;45.20;;;;;;6214184;23;19915;-86
2022/04/18 14:52:59;;;;;;;6.57;3.92;;;19.80;44.60;;;;;;6188937;23;20063;-86
2022/04/18 14:55:25;;;;;;;5.55;3.03;;;19.80;44.00;;;;;;6188978;23;20017;-85
2022/04/18 14:57:51;;;;;;;5.22;2.88;;;19.70;45.10;;;;;;6189024;23;20008;-85
2022/04/18 15:00:16;;;;;;;6.63;3.45;;;19.80;45.90;;;;;;6214042;23;20131;-85
2022/04/18 15:02:44;;;;;;;7.93;3.65;;;19.80;45.80;;;;;;6214144;23;20032;-88
2022/04/18 15:05:10;;;;;;;5.25;3.70;;;19.80;45.40;;;;;;6213931;23;20024;-89
2022/04/18 15:07:36;;;;;;;6.45;2.90;;;19.70;44.30;;;;;;6214189;23;20070;-86
2022/04/18 15:10:02;;;;;;;4.82;3.05;;;19.70;44.50;;;;;;6214073;23;20024;-86
2022/04/18 15:12:28;;;;;;;6.05;3.17;;;19.70;44.90;;;;;;6214094;23;20328;-86
2022/04/18 15:14:54;;;;;;;5.43;3.10;;;19.70;45.10;;;;;;6213929;23;20082;-85
2022/04/18 15:17:20;;;;;;;;;;;19.70;45.20;;;;;;6188967;23;20017;-85
2022/04/18 15:19:45;;;;;;;5.97;2.78;;;19.60;43.50;;;;;;6213771;23;19916;-85
2022/04/18 15:22:11;;;;;;;6.20;3.15;;;19.50;45.70;;;;;;6213970;23;20016;-85
2022/04/18 15:24:39;;;;;;;5.13;3.00;;;19.50;46.00;;;;;;6213823;23;20055;-85
2022/04/18 15:27:05;;;;;;;6.53;3.28;;;19.50;46.30;;;;;;6188762;23;20465;-88
2022/04/18 15:29:32;;;;;;;5.35;3.08;;;19.50;46.60;;;;;;6164197;23;20055;-86
2022/04/18 15:32:07;;;;;;;5.03;3.13;;;19.40;46.50;;;;;;6213960;23;20028;-85
2022/04/18 15:34:35;;;;;;;5.22;3.05;;;19.40;46.00;;;;;;6188650;23;20336;-86
2022/04/18 15:37:11;;;;;;;5.55;2.97;;;19.30;46.10;;;;;;6188876;23;20016;-89
2022/04/18 15:39:38;;;;;;;5.13;2.67;;;19.30;46.20;;;;;;6188720;23;20012;-85
2022/04/18 15:42:05;;;;;;;5.07;2.75;;;19.20;45.90;;;;;;6213830;23;20020;-86
2022/04/18 15:44:34;;;;;;;5.22;3.17;;;19.20;45.30;;;;;;6189090;23;20009;-84
2022/04/18 15:47:01;;;;;;;5.47;3.00;;;19.20;45.00;;;;;;6213439;23;20016;-85
2022/04/18 15:49:27;;;;;;;5.95;2.92;;;19.10;44.70;;;;;;6213627;23;20017;-87
2022/04/18 15:51:53;;;;;;;5.45;2.90;;;19.00;44.30;;;;;;6215007;23;20445;-87
2022/04/18 15:54:24;;;;;;;7.53;3.53;;;19.00;44.80;;;;;;6190778;23;20091;-85
2022/04/18 15:56:52;;;;;;;4.85;3.35;;;19.00;45.00;;;;;;6216227;23;20401;-85
2022/04/18 15:59:21;;;;;;;8.82;5.78;;;18.90;44.80;;;;;;6189506;23;20019;-85
2022/04/18 16:01:48;;;;;;;8.90;6.45;;;18.90;46.00;;;;;;6216098;23;20082;-85
2022/04/18 16:04:14;;;;;;;9.63;6.80;;;18.80;48.10;;;;;;6215712;23;20025;-85
2022/04/18 16:06:40;;;;;;;10.15;6.80;;;18.80;50.10;;;;;;6165906;23;20024;-84
2022/04/18 16:09:06;;;;;;;10.07;6.85;;;18.70;51.50;;;;;;6215815;23;20016;-86
2022/04/18 16:11:32;;;;;;;10.60;7.63;;;18.60;51.90;;;;;;6190177;23;20050;-87
2022/04/18 16:13:58;;;;;;;13.32;7.95;;;18.50;52.90;;;;;;6214827;23;20031;-85
2022/04/18 16:16:25;;;;;;;9.88;6.95;;;18.50;53.90;;;;;;6189381;23;20020;-88